Time;durP1;ratioP1;P1;durP2;ratioP2;P2;SDS_P1;SDS_P2;PMS_P1;PMS_P2;Temp;Humidity;BMP_temperature;BMP_pressure;BME280_temperature;BME280_humidity;BME280_pressure;Samples;Min_cycle;Max_cycle;Signal;HPM_P1;HPM_P2
2023/04/15 00:00:07;;;;;;;12.40;6.30;;;6.50;99.90;;;;;;4938084;29;20055;-80
2023/04/15 00:02:34;;;;;;;10.73;5.95;;;6.40;99.90;;;;;;4957001;29;20062;-80
2023/04/15 00:04:59;;;;;;;11.48;6.50;;;6.30;99.90;;;;;;4938020;29;20055;-82
2023/04/15 00:07:25;;;;;;;12.88;7.00;;;6.30;99.90;;;;;;4952855;28;20065;-83
2023/04/15 00:09:54;;;;;;;10.85;5.72;;;6.40;99.90;;;;;;4937080;29;20039;-83
2023/04/15 00:12:20;;;;;;;10.95;5.68;;;6.40;99.90;;;;;;4954040;28;20047;-82
2023/04/15 00:14:47;;;;;;;9.80;6.18;;;6.30;99.90;;;;;;4953780;28;20066;-83
2023/04/15 00:17:12;;;;;;;8.15;6.68;;;6.90;99.90;;;;;;4952599;29;20360;-82
2023/04/15 00:19:39;;;;;;;12.55;7.20;;;6.20;99.90;;;;;;4936324;29;20073;-82
2023/04/15 00:22:05;;;;;;;11.88;6.35;;;6.20;99.90;;;;;;4952285;28;20118;-83
2023/04/15 00:24:31;;;;;;;10.63;6.57;;;6.10;99.90;;;;;;4952379;28;20518;-82
2023/04/15 00:26:57;;;;;;;12.60;6.82;;;6.10;99.90;;;;;;4952079;28;20062;-83
2023/04/15 00:29:24;;;;;;;12.63;6.60;;;6.10;99.90;;;;;;4952286;29;20059;-83
2023/04/15 00:31:50;;;;;;;12.38;6.63;;;6.20;99.90;;;;;;4936707;29;20514;-82
2023/04/15 00:34:15;;;;;;;10.73;6.72;;;6.20;99.90;;;;;;4936145;29;20086;-82
2023/04/15 00:36:41;;;;;;;11.73;6.90;;;6.10;99.90;;;;;;4936255;29;20759;-83
2023/04/15 00:39:08;;;;;;;11.52;6.70;;;6.00;99.90;;;;;;4936294;29;20471;-83
2023/04/15 00:41:33;;;;;;;14.90;7.10;;;6.00;99.90;;;;;;4951408;28;20114;-81
2023/04/15 00:44:01;;;;;;;11.35;6.57;;;6.00;99.90;;;;;;4936196;29;20051;-82
2023/04/15 00:46:28;;;;;;;11.13;6.78;;;6.00;99.90;;;;;;4936030;29;20066;-82
2023/04/15 00:48:54;;;;;;;12.82;6.82;;;6.00;99.90;;;;;;4935476;29;20055;-82
2023/04/15 00:51:19;;;;;;;16.00;6.85;;;5.90;99.90;;;;;;4935250;29;20062;-83
2023/04/15 00:53:45;;;;;;;10.20;7.15;;;5.90;99.90;;;;;;4952026;28;20119;-82
2023/04/15 00:56:11;;;;;;;13.70;7.28;;;5.90;99.90;;;;;;4951791;28;20055;-81
2023/04/15 00:58:36;;;;;;;10.95;6.80;;;5.90;99.90;;;;;;4920023;29;20514;-82
2023/04/15 01:01:05;;;;;;;17.25;8.20;;;5.90;99.90;;;;;;4951816;28;20047;-82
2023/04/15 01:03:31;;;;;;;11.05;7.43;;;5.70;99.90;;;;;;4951546;28;20113;-83
2023/04/15 01:05:57;;;;;;;11.70;7.47;;;5.80;99.90;;;;;;4935541;29;20480;-81
2023/04/15 01:08:31;;;;;;;14.15;7.70;;;6.30;99.90;;;;;;4935397;29;20066;-83
2023/04/15 01:10:58;;;;;;;15.57;8.15;;;5.80;99.90;;;;;;4935725;29;20055;-82
2023/04/15 01:13:23;;;;;;;15.95;8.25;;;5.70;99.90;;;;;;4951447;28;20123;-81
2023/04/15 01:15:50;;;;;;;15.15;7.72;;;5.70;99.90;;;;;;4938549;29;20130;-81
2023/04/15 01:18:16;;;;;;;9.93;8.23;;;5.70;99.90;;;;;;4939138;29;20105;-81
2023/04/15 01:20:42;;;;;;;13.70;8.10;;;5.70;99.90;;;;;;4951368;29;20063;-82
2023/04/15 01:23:08;;;;;;;15.43;8.60;;;5.70;99.90;;;;;;4951629;28;20183;-82
2023/04/15 01:25:34;;;;;;;12.80;8.57;;;5.70;99.90;;;;;;4935504;29;20078;-82
2023/04/15 01:27:59;;;;;;;12.45;8.75;;;5.70;99.90;;;;;;4951584;28;20059;-83
2023/04/15 01:30:28;;;;;;;15.65;8.38;;;5.70;99.90;;;;;;4937473;29;20495;-82
2023/04/15 01:32:54;;;;;;;13.38;8.35;;;5.70;99.90;;;;;;4962029;28;20066;-83
2023/04/15 01:35:21;;;;;;;15.90;8.73;;;5.70;99.90;;;;;;4946742;29;20051;-83
2023/04/15 01:37:47;;;;;;;17.30;9.13;;;5.60;99.90;;;;;;4936374;29;20608;-82
2023/04/15 01:40:12;;;;;;;13.57;8.98;;;5.50;99.90;;;;;;4919169;29;20057;-83
2023/04/15 01:42:38;;;;;;;12.77;8.73;;;5.50;99.90;;;;;;4935467;29;20094;-81
2023/04/15 01:45:05;;;;;;;13.98;8.75;;;5.50;99.90;;;;;;4935278;29;20515;-82
2023/04/15 01:47:31;;;;;;;14.60;9.02;;;5.50;99.90;;;;;;4935314;29;20058;-82
2023/04/15 01:49:56;;;;;;;14.20;9.18;;;5.50;99.90;;;;;;4919326;29;20047;-81
2023/04/15 01:52:22;;;;;;;14.35;8.98;;;5.40;99.90;;;;;;4935013;29;20093;-82
2023/04/15 01:54:48;;;;;;;15.93;9.75;;;5.50;99.90;;;;;;4935082;29;20487;-82
2023/04/15 01:57:13;;;;;;;15.23;9.18;;;5.30;99.90;;;;;;4934661;29;20058;-82
2023/04/15 01:59:39;;;;;;;15.57;9.10;;;5.30;99.90;;;;;;4950484;29;20055;-82
2023/04/15 02:02:05;;;;;;;14.07;9.00;;;5.30;99.90;;;;;;4934790;29;20051;-81
2023/04/15 02:04:31;;;;;;;15.98;9.40;;;5.30;99.90;;;;;;4934325;29;20079;-82
2023/04/15 02:06:57;;;;;;;18.90;9.65;;;5.20;99.90;;;;;;4950737;28;20133;-80
2023/04/15 02:09:22;;;;;;;14.48;9.82;;;5.20;99.90;;;;;;4950352;29;20094;-82
2023/04/15 02:11:49;;;;;;;13.77;9.63;;;5.10;99.90;;;;;;4950498;28;20522;-83
2023/04/15 02:14:15;;;;;;;16.65;9.98;;;5.10;99.90;;;;;;4950183;29;20566;-80
2023/04/15 02:16:40;;;;;;;14.88;9.10;;;5.00;99.90;;;;;;4950075;28;20122;-81
2023/04/15 02:19:06;;;;;;;14.50;10.07;;;5.00;99.90;;;;;;4951636;29;20102;-83
2023/04/15 02:21:32;;;;;;;14.00;9.88;;;5.00;99.90;;;;;;4950067;29;20051;-82
2023/04/15 02:23:57;;;;;;;16.17;10.80;;;5.10;99.90;;;;;;4950406;28;20043;-82
2023/04/15 02:26:24;;;;;;;14.82;10.85;;;4.80;99.90;;;;;;4950618;28;20133;-82
2023/04/15 02:28:52;;;;;;;14.02;9.88;;;4.90;99.90;;;;;;4953251;28;20063;-82
2023/04/15 02:31:18;;;;;;;17.40;11.43;;;4.80;99.90;;;;;;4923894;29;20058;-80
2023/04/15 02:33:44;;;;;;;20.13;10.95;;;4.70;99.90;;;;;;4951062;28;20051;-81
2023/04/15 02:36:11;;;;;;;16.83;11.07;;;4.70;99.90;;;;;;4933989;29;20122;-82
2023/04/15 02:38:39;;;;;;;17.73;11.23;;;4.70;99.90;;;;;;4949825;28;20102;-82
2023/04/15 02:41:05;;;;;;;17.42;10.93;;;5.00;99.90;;;;;;4919097;29;20058;-83
2023/04/15 02:43:30;;;;;;;17.52;11.43;;;4.70;99.90;;;;;;4934310;29;20055;-81
2023/04/15 02:45:56;;;;;;;18.40;11.25;;;4.60;99.90;;;;;;4950242;28;20126;-82
2023/04/15 02:48:22;;;;;;;16.45;10.90;;;4.70;99.90;;;;;;4949680;29;20088;-83
2023/04/15 02:50:47;;;;;;;16.95;11.05;;;4.60;99.90;;;;;;4934232;29;20106;-82
2023/04/15 02:53:13;;;;;;;15.10;10.75;;;4.60;99.90;;;;;;4950000;29;20055;-82
2023/04/15 02:55:39;;;;;;;17.20;11.32;;;4.60;99.90;;;;;;4934438;29;20259;-80
2023/04/15 02:58:05;;;;;;;18.33;11.77;;;4.60;99.90;;;;;;4934046;29;20063;-82
2023/04/15 03:00:31;;;;;;;16.48;11.38;;;4.60;99.90;;;;;;4918651;29;20043;-81
2023/04/15 03:03:04;;;;;;;15.70;10.65;;;4.50;99.90;;;;;;4950328;28;20102;-82
2023/04/15 03:05:30;;;;;;;20.85;11.43;;;5.00;99.90;;;;;;4933884;29;20861;-82
2023/04/15 03:07:56;;;;;;;17.30;11.45;;;5.00;99.90;;;;;;4917990;29;20534;-83
2023/04/15 03:10:21;;;;;;;18.35;11.63;;;5.00;99.90;;;;;;4918721;29;20055;-83
2023/04/15 03:12:47;;;;;;;21.23;12.52;;;4.40;99.90;;;;;;4951059;28;20055;-82
2023/04/15 03:15:13;;;;;;;17.27;11.90;;;4.50;99.90;;;;;;4922574;29;20051;-81
2023/04/15 03:17:39;;;;;;;16.05;11.57;;;4.60;99.90;;;;;;4937591;29;20044;-81
2023/04/15 03:20:05;;;;;;;17.23;12.30;;;4.30;99.90;;;;;;4952948;28;20051;-80
2023/04/15 03:22:31;;;;;;;17.17;11.93;;;4.30;99.90;;;;;;4950684;29;20047;-80
2023/04/15 03:24:57;;;;;;;17.33;11.55;;;4.20;99.90;;;;;;4937189;29;20043;-81
2023/04/15 03:27:23;;;;;;;19.77;12.88;;;4.20;99.90;;;;;;4953351;29;20043;-80
2023/04/15 03:29:49;;;;;;;23.02;14.15;;;4.20;99.90;;;;;;4937562;29;20122;-80
2023/04/15 03:32:15;;;;;;;19.35;12.63;;;4.10;99.90;;;;;;4952835;29;20467;-80
2023/04/15 03:34:41;;;;;;;18.63;11.70;;;4.10;99.90;;;;;;4953996;28;20055;-80
2023/04/15 03:37:07;;;;;;;23.20;13.45;;;4.10;99.90;;;;;;4938245;29;20058;-81
2023/04/15 03:39:34;;;;;;;19.00;12.73;;;4.90;99.90;;;;;;4949540;29;20090;-82
2023/04/15 03:42:00;;;;;;;18.30;12.25;;;4.00;99.90;;;;;;4962120;28;20511;-80
2023/04/15 03:44:26;;;;;;;16.80;12.27;;;4.00;99.90;;;;;;4957171;29;20132;-80
2023/04/15 03:46:52;;;;;;;22.02;13.55;;;4.20;99.90;;;;;;4953976;29;20155;-83
2023/04/15 03:49:18;;;;;;;18.00;11.90;;;3.90;99.90;;;;;;4952769;28;20069;-82
2023/04/15 03:51:44;;;;;;;18.50;11.82;;;4.70;99.90;;;;;;4954066;28;20043;-83
2023/04/15 03:54:11;;;;;;;19.48;12.68;;;5.30;99.90;;;;;;4937296;29;20143;-82
2023/04/15 03:56:38;;;;;;;19.05;12.32;;;3.70;99.90;;;;;;4937484;29;20765;-82
2023/04/15 03:59:04;;;;;;;21.20;12.55;;;3.70;99.90;;;;;;4954472;28;20051;-81
2023/04/15 04:01:29;;;;;;;18.27;12.00;;;3.70;99.90;;;;;;4952854;29;20047;-81
2023/04/15 04:03:55;;;;;;;21.92;12.68;;;3.60;99.90;;;;;;4953734;29;20138;-81
2023/04/15 04:06:21;;;;;;;19.05;12.02;;;3.60;99.90;;;;;;4952855;29;20054;-81
2023/04/15 04:08:47;;;;;;;19.55;12.48;;;4.00;99.90;;;;;;4937084;29;20063;-81
2023/04/15 04:11:12;;;;;;;26.00;13.23;;;3.60;99.90;;;;;;4954639;29;20059;-82
2023/04/15 04:13:38;;;;;;;20.38;13.13;;;3.60;99.90;;;;;;4953436;28;20479;-81
2023/04/15 04:16:04;;;;;;;20.45;12.32;;;3.80;99.90;;;;;;4937707;29;20058;-83
2023/04/15 04:18:31;;;;;;;19.90;11.90;;;3.50;99.90;;;;;;4936943;29;20075;-83
2023/04/15 04:20:57;;;;;;;21.15;12.73;;;3.60;99.90;;;;;;4952615;28;20043;-81
2023/04/15 04:23:22;;;;;;;20.98;13.27;;;3.50;99.90;;;;;;4954200;28;20078;-82
2023/04/15 04:25:48;;;;;;;21.25;13.05;;;3.30;99.90;;;;;;4937396;29;20196;-82
2023/04/15 04:28:13;;;;;;;20.35;13.63;;;3.30;99.90;;;;;;4954223;28;20050;-82
2023/04/15 04:30:39;;;;;;;22.27;13.60;;;4.70;99.90;;;;;;4952840;28;20085;-81
2023/04/15 04:33:06;;;;;;;20.92;13.77;;;4.40;99.90;;;;;;4952616;28;20055;-81
2023/04/15 04:35:33;;;;;;;25.50;14.55;;;3.30;99.90;;;;;;4935920;29;20074;-82
2023/04/15 04:37:59;;;;;;;27.13;14.73;;;3.40;99.90;;;;;;4952186;29;20061;-82
2023/04/15 04:40:26;;;;;;;28.80;16.17;;;3.40;99.90;;;;;;4936050;29;20098;-81
2023/04/15 04:42:52;;;;;;;26.70;16.27;;;3.90;99.90;;;;;;4935814;29;20067;-81
2023/04/15 04:45:18;;;;;;;30.05;16.70;;;3.50;99.90;;;;;;4936253;29;20059;-81
2023/04/15 04:47:45;;;;;;;32.40;18.10;;;3.40;99.90;;;;;;4936270;29;20067;-82
2023/04/15 04:50:11;;;;;;;33.22;18.15;;;4.00;99.90;;;;;;4952172;29;20122;-82
2023/04/15 04:52:36;;;;;;;34.33;19.73;;;3.50;99.90;;;;;;4920122;29;20775;-81
2023/04/15 04:55:07;;;;;;;31.48;18.83;;;4.20;99.90;;;;;;4951983;28;20142;-80
2023/04/15 04:57:34;;;;;;;33.60;18.48;;;3.60;99.90;;;;;;4940772;29;20051;-81
2023/04/15 05:00:02;;;;;;;39.55;21.13;;;3.70;99.90;;;;;;4923741;29;20083;-83
2023/04/15 05:02:27;;;;;;;35.40;20.13;;;4.60;99.90;;;;;;4920208;29;20093;-81
2023/04/15 05:04:53;;;;;;;41.47;22.00;;;3.80;99.90;;;;;;4935490;29;20091;-81
2023/04/15 05:07:20;;;;;;;37.55;21.08;;;3.90;99.90;;;;;;4951663;28;20105;-82
2023/04/15 05:09:46;;;;;;;41.03;22.17;;;4.00;99.90;;;;;;4936194;29;20063;-82
2023/04/15 05:12:13;;;;;;;40.80;22.70;;;4.10;99.90;;;;;;4952038;29;20089;-81
2023/04/15 05:14:40;;;;;;;36.78;21.85;;;5.20;99.90;;;;;;4951476;28;20071;-82
2023/04/15 05:17:08;;;;;;;36.40;19.65;;;4.30;99.90;;;;;;4951631;28;20151;-82
2023/04/15 05:19:34;;;;;;;38.15;21.25;;;4.40;99.90;;;;;;4936986;29;20527;-81
2023/04/15 05:22:00;;;;;;;35.67;19.90;;;4.50;99.90;;;;;;4937361;29;20051;-82
2023/04/15 05:24:26;;;;;;;33.08;20.02;;;4.70;99.90;;;;;;4936820;29;20119;-81
2023/04/15 05:26:51;;;;;;;34.03;19.00;;;4.90;99.90;;;;;;4921755;29;20113;-83
2023/04/15 05:29:17;;;;;;;30.63;18.42;;;5.20;99.90;;;;;;4937502;29;20055;-82
2023/04/15 05:31:43;;;;;;;30.67;18.25;;;5.40;99.90;;;;;;4952823;29;20059;-80
2023/04/15 05:34:09;;;;;;;30.35;17.85;;;5.90;99.90;;;;;;4920252;29;20043;-82
2023/04/15 05:36:34;;;;;;;30.65;18.20;;;5.90;99.90;;;;;;4935034;29;20063;-82
2023/04/15 05:39:00;;;;;;;28.08;17.98;;;6.10;99.90;;;;;;4935404;29;20051;-81
2023/04/15 05:41:26;;;;;;;28.17;17.63;;;6.50;99.90;;;;;;4951095;29;20065;-83
2023/04/15 05:43:55;;;;;;;25.55;17.27;;;6.50;99.90;;;;;;4935227;29;20135;-82
2023/04/15 05:46:21;;;;;;;22.20;15.00;;;6.60;99.90;;;;;;4950394;28;20055;-81
2023/04/15 05:48:47;;;;;;;24.83;15.18;;;6.90;99.90;;;;;;4935237;29;20051;-82
2023/04/15 05:51:12;;;;;;;22.92;16.83;;;7.10;99.90;;;;;;4952296;28;20129;-82
2023/04/15 05:53:40;;;;;;;21.77;14.73;;;7.10;99.90;;;;;;4950815;28;20073;-82
2023/04/15 05:56:06;;;;;;;21.23;13.60;;;7.30;99.90;;;;;;4919165;29;20063;-82
2023/04/15 05:58:32;;;;;;;20.27;14.13;;;7.40;99.90;;;;;;4950400;29;20562;-82
2023/04/15 06:00:59;;;;;;;18.85;14.25;;;7.40;99.90;;;;;;4934353;29;20051;-83
2023/04/15 06:03:25;;;;;;;20.23;13.88;;;7.60;99.90;;;;;;4952132;28;20081;-83
2023/04/15 06:05:51;;;;;;;18.50;13.25;;;7.70;99.90;;;;;;4934683;29;20456;-81
2023/04/15 06:08:17;;;;;;;18.02;10.82;;;7.60;99.90;;;;;;4950235;28;20071;-82
2023/04/15 06:10:43;;;;;;;19.23;13.65;;;7.80;99.90;;;;;;4936524;29;20059;-81
2023/04/15 06:13:09;;;;;;;19.40;13.38;;;7.70;99.90;;;;;;4936850;29;20057;-82
2023/04/15 06:15:34;;;;;;;24.20;13.73;;;7.70;99.90;;;;;;4950461;29;20051;-81
2023/04/15 06:18:00;;;;;;;17.67;13.48;;;8.10;99.90;;;;;;4952133;29;20043;-81
2023/04/15 06:20:26;;;;;;;18.45;13.48;;;7.90;99.90;;;;;;4934656;29;20054;-82
2023/04/15 06:22:52;;;;;;;19.73;14.02;;;8.00;99.90;;;;;;4950610;28;20051;-82
2023/04/15 06:25:18;;;;;;;17.95;12.95;;;7.80;99.90;;;;;;4934798;29;20055;-82
2023/04/15 06:27:43;;;;;;;21.17;13.73;;;7.90;99.90;;;;;;4934261;29;20444;-84
2023/04/15 06:30:09;;;;;;;18.08;12.13;;;7.90;99.90;;;;;;4949893;29;20051;-81
2023/04/15 06:32:35;;;;;;;18.40;13.18;;;7.90;99.90;;;;;;4951184;28;20055;-83
2023/04/15 06:35:01;;;;;;;21.08;12.55;;;7.90;99.90;;;;;;4933129;29;20054;-83
2023/04/15 06:37:27;;;;;;;18.95;13.40;;;7.80;99.90;;;;;;4918117;29;20055;-82
2023/04/15 06:39:52;;;;;;;18.17;12.73;;;7.70;99.90;;;;;;4949521;29;20088;-83
2023/04/15 06:42:18;;;;;;;20.77;14.18;;;7.90;99.90;;;;;;4933417;29;20518;-83
2023/04/15 06:44:44;;;;;;;22.95;14.43;;;7.80;99.90;;;;;;4949221;29;20419;-83
2023/04/15 06:47:11;;;;;;;19.85;12.95;;;7.80;99.90;;;;;;4933307;29;20138;-82
2023/04/15 06:49:39;;;;;;;20.90;13.43;;;7.90;99.90;;;;;;4953268;28;20043;-83
2023/04/15 06:52:05;;;;;;;18.00;11.30;;;8.00;99.90;;;;;;4953301;28;20205;-82
2023/04/15 06:54:30;;;;;;;18.98;13.30;;;8.20;99.90;;;;;;4921581;29;20137;-83
2023/04/15 06:56:56;;;;;;;18.75;12.70;;;8.20;99.90;;;;;;4937169;29;20167;-83
2023/04/15 06:59:22;;;;;;;19.38;12.48;;;8.20;99.90;;;;;;4921316;29;20383;-82
2023/04/15 07:01:47;;;;;;;19.60;13.05;;;8.40;99.90;;;;;;4953176;29;20047;-83
2023/04/15 07:04:13;;;;;;;18.70;11.57;;;8.50;99.90;;;;;;4952505;28;20514;-81
2023/04/15 07:06:39;;;;;;;17.90;12.02;;;8.40;99.90;;;;;;4954308;28;20480;-81
2023/04/15 07:09:04;;;;;;;19.95;13.52;;;8.50;99.90;;;;;;4954846;28;20210;-80
2023/04/15 07:11:30;;;;;;;19.92;12.85;;;8.60;99.90;;;;;;4951724;29;20066;-81
2023/04/15 07:13:57;;;;;;;18.45;12.85;;;8.60;99.90;;;;;;4951646;29;20071;-80
2023/04/15 07:16:23;;;;;;;16.70;12.32;;;8.50;99.90;;;;;;4952482;29;20051;-81
2023/04/15 07:18:48;;;;;;;19.02;12.35;;;8.60;99.90;;;;;;4920857;29;20057;-82
2023/04/15 07:21:16;;;;;;;15.43;11.68;;;8.70;99.90;;;;;;4920424;29;20046;-80
2023/04/15 07:23:41;;;;;;;16.55;9.95;;;8.80;99.90;;;;;;4939587;29;20199;-80
2023/04/15 07:26:07;;;;;;;15.95;11.73;;;8.60;99.90;;;;;;4958170;29;20126;-80
2023/04/15 07:28:33;;;;;;;17.02;11.88;;;8.70;99.90;;;;;;4953939;28;20062;-81
2023/04/15 07:31:00;;;;;;;17.60;11.43;;;8.80;99.90;;;;;;4940415;29;20139;-81
2023/04/15 07:33:26;;;;;;;12.05;8.43;;;9.00;99.90;;;;;;4955841;28;20062;-82
2023/04/15 07:35:52;;;;;;;11.27;7.22;;;9.20;99.90;;;;;;4937177;29;20059;-81
2023/04/15 07:38:17;;;;;;;15.00;9.43;;;9.40;99.90;;;;;;4939082;29;20050;-82
2023/04/15 07:40:43;;;;;;;13.13;8.82;;;9.50;99.90;;;;;;4953548;28;20047;-85
2023/04/15 07:43:09;;;;;;;11.48;7.65;;;9.60;99.90;;;;;;4950938;29;20126;-85
2023/04/15 07:45:44;;;;;;;15.75;8.90;;;8.40;99.90;;;;;;4937834;29;20050;-85
2023/04/15 07:48:09;;;;;;;13.05;8.15;;;9.70;99.90;;;;;;4921184;29;20553;-83
2023/04/15 07:50:35;;;;;;;13.50;7.38;;;9.70;99.90;;;;;;4921959;29;20109;-84
2023/04/15 07:53:02;;;;;;;8.52;5.47;;;9.70;99.90;;;;;;4937096;29;20062;-86
2023/04/15 07:55:29;;;;;;;6.60;4.70;;;9.90;99.90;;;;;;4953334;29;20131;-86
2023/04/15 07:57:55;;;;;;;9.43;5.50;;;10.00;99.90;;;;;;4937847;28;20047;-84
2023/04/15 08:00:21;;;;;;;8.00;4.80;;;10.00;99.90;;;;;;4932896;29;20051;-86
2023/04/15 08:02:48;;;;;;;7.43;4.53;;;10.00;99.90;;;;;;4955133;28;20201;-86
2023/04/15 08:05:14;;;;;;;5.43;3.58;;;9.90;99.90;;;;;;4921134;29;20066;-87
2023/04/15 08:07:40;;;;;;;8.40;4.45;;;9.90;99.90;;;;;;4921355;28;20403;-87
2023/04/15 08:10:07;;;;;;;10.75;7.90;;;9.90;99.90;;;;;;4935928;29;20397;-85
2023/04/15 08:12:32;;;;;;;5.95;3.88;;;9.90;99.90;;;;;;4920449;29;20047;-86
2023/04/15 08:14:58;;;;;;;6.82;4.60;;;9.90;99.90;;;;;;4936271;29;20055;-85
2023/04/15 08:17:24;;;;;;;8.68;6.30;;;10.00;99.90;;;;;;4935687;29;20051;-86
2023/04/15 08:19:50;;;;;;;13.40;7.47;;;9.90;99.90;;;;;;4920341;29;20054;-84
2023/04/15 08:22:15;;;;;;;6.35;4.85;;;9.50;99.90;;;;;;4935294;29;20062;-84
2023/04/15 08:24:41;;;;;;;8.10;4.78;;;9.70;99.90;;;;;;4935613;29;20047;-84
2023/04/15 08:27:09;;;;;;;10.23;4.32;;;9.70;99.90;;;;;;4936275;29;20484;-87
2023/04/15 08:29:34;;;;;;;6.13;3.13;;;9.80;99.90;;;;;;4935660;29;20055;-86
2023/04/15 08:32:00;;;;;;;4.28;3.22;;;9.80;99.90;;;;;;4935281;29;20054;-82
2023/04/15 08:34:26;;;;;;;5.35;3.50;;;9.70;99.90;;;;;;4952470;28;20130;-83
2023/04/15 08:36:52;;;;;;;7.15;4.70;;;9.70;99.90;;;;;;4956881;28;20133;-85
2023/04/15 08:39:18;;;;;;;7.07;4.35;;;9.60;99.90;;;;;;4947490;29;20098;-86
2023/04/15 08:41:58;;;;;;;7.53;5.18;;;9.50;99.90;;;;;;4918438;29;20106;-87
2023/04/15 08:44:25;;;;;;;6.18;3.45;;;9.40;99.90;;;;;;4919759;29;20058;-84
2023/04/15 08:46:53;;;;;;;6.88;3.97;;;9.60;99.90;;;;;;4951234;29;20135;-84
2023/04/15 08:49:19;;;;;;;10.02;5.63;;;9.50;99.90;;;;;;4920696;29;20443;-80
2023/04/15 08:51:45;;;;;;;7.40;4.57;;;9.40;99.90;;;;;;4936148;29;20538;-83
2023/04/15 08:54:10;;;;;;;5.38;3.75;;;9.60;99.90;;;;;;4950869;29;20050;-84
2023/04/15 08:56:37;;;;;;;5.60;3.67;;;9.40;99.90;;;;;;4935120;29;20110;-86
2023/04/15 08:59:04;;;;;;;5.85;3.28;;;9.80;99.90;;;;;;4920088;29;20055;-85
2023/04/15 09:01:31;;;;;;;2.63;2.13;;;9.90;99.90;;;;;;4936012;29;20057;-85
2023/04/15 09:03:56;;;;;;;5.40;3.92;;;9.90;99.90;;;;;;4951519;29;20406;-84
2023/04/15 09:06:22;;;;;;;4.95;2.38;;;9.90;99.90;;;;;;4935509;29;20051;-85
2023/04/15 09:08:49;;;;;;;2.95;2.30;;;10.00;99.90;;;;;;4935493;29;20055;-85
2023/04/15 09:11:16;;;;;;;4.50;1.80;;;10.10;99.90;;;;;;4950231;28;20115;-85
2023/04/15 09:13:42;;;;;;;5.60;3.83;;;10.10;99.90;;;;;;4935166;29;20055;-85
2023/04/15 09:16:09;;;;;;;4.97;3.28;;;9.90;99.90;;;;;;4919359;29;20066;-85
2023/04/15 09:18:36;;;;;;;3.78;3.00;;;9.90;99.90;;;;;;4918940;29;20098;-83
2023/04/15 09:21:19;;;;;;;3.92;2.70;;;10.00;99.90;;;;;;4934292;29;20062;-83
2023/04/15 09:24:00;;;;;;;5.53;2.80;;;10.00;99.90;;;;;;4948725;29;20779;-83
2023/04/15 09:26:39;;;;;;;3.80;2.40;;;10.10;99.90;;;;;;4919232;29;20091;-82
2023/04/15 09:29:09;;;;;;;6.32;2.38;;;10.00;99.90;;;;;;4933086;29;20065;-84
2023/04/15 09:31:35;;;;;;;2.95;2.67;;;10.30;99.90;;;;;;4915973;29;20075;-84
2023/04/15 09:34:01;;;;;;;4.80;2.90;;;10.00;99.90;;;;;;4916673;29;20058;-87
2023/04/15 09:37:19;;;;;;;4.28;1.42;;;11.50;99.90;;;;;;5086247;27;20422;-85
2023/04/15 09:39:46;;;;;;;5.40;2.90;;;9.90;99.90;;;;;;5052474;28;20058;-84
2023/04/15 09:42:11;;;;;;;6.63;2.53;;;9.80;99.90;;;;;;5076856;28;20108;-86
2023/04/15 09:44:38;;;;;;;3.00;2.55;;;9.90;99.90;;;;;;5076218;28;20539;-84
2023/04/15 09:47:03;;;;;;;4.53;2.00;;;9.80;99.90;;;;;;5069599;28;20135;-82
2023/04/15 09:49:29;;;;;;;2.25;2.00;;;9.90;99.90;;;;;;5086941;28;20135;-81
2023/04/15 09:52:00;;;;;;;2.78;2.08;;;10.10;99.90;;;;;;5090929;28;20048;-81
2023/04/15 09:54:36;;;;;;;4.55;2.22;;;9.90;99.90;;;;;;5068427;28;20071;-83
2023/04/15 09:57:09;;;;;;;3.38;2.53;;;10.10;99.90;;;;;;5065275;28;20382;-84
2023/04/15 09:59:35;;;;;;;4.32;2.75;;;10.30;99.90;;;;;;5084968;28;20056;-83
2023/04/15 10:02:03;;;;;;;3.88;2.40;;;10.40;99.90;;;;;;5067510;28;20044;-84
2023/04/15 10:04:28;;;;;;;4.78;2.95;;;10.20;99.90;;;;;;5050249;28;20128;-85
2023/04/15 10:06:54;;;;;;;4.53;2.85;;;10.20;99.90;;;;;;5084081;28;20119;-86
2023/04/15 10:09:20;;;;;;;4.85;2.25;;;10.10;99.90;;;;;;5051075;28;20047;-85
2023/04/15 10:11:46;;;;;;;2.28;2.08;;;10.00;99.90;;;;;;5034500;28;20053;-86
2023/04/15 10:14:12;;;;;;;3.90;2.05;;;10.40;99.90;;;;;;5051554;28;20051;-87
2023/04/15 10:16:38;;;;;;;4.07;2.75;;;10.50;99.90;;;;;;5045627;28;20159;-84
2023/04/15 10:19:04;;;;;;;3.92;2.38;;;10.50;99.90;;;;;;5067623;28;20119;-85
2023/04/15 10:21:31;;;;;;;5.88;3.40;;;10.50;99.90;;;;;;5067301;28;20625;-86
2023/04/15 10:23:57;;;;;;;4.53;2.25;;;10.20;99.90;;;;;;5084040;28;20470;-88
2023/04/15 10:26:22;;;;;;;2.30;2.00;;;10.40;99.90;;;;;;5051700;28;20052;-87
2023/04/15 10:28:50;;;;;;;1.98;1.83;;;10.10;99.90;;;;;;5048523;28;20055;-86
2023/04/15 10:31:16;;;;;;;4.35;2.58;;;10.50;99.90;;;;;;5062338;28;20130;-84
2023/04/15 10:33:44;;;;;;;4.80;2.58;;;10.30;99.90;;;;;;5083713;28;20052;-88
2023/04/15 10:36:10;;;;;;;3.13;1.90;;;10.30;99.90;;;;;;5063938;28;20120;-87
2023/04/15 10:38:41;;;;;;;3.90;2.22;;;10.40;99.90;;;;;;5051773;28;20095;-87
2023/04/15 10:41:18;;;;;;;5.97;2.38;;;10.30;99.90;;;;;;5067014;28;20052;-83
2023/04/15 10:43:49;;;;;;;2.17;1.75;;;10.20;99.90;;;;;;5084052;28;20044;-86
2023/04/15 10:46:20;;;;;;;3.17;2.28;;;10.30;99.90;;;;;;5052243;28;20052;-86
2023/04/15 10:48:50;;;;;;;7.40;2.30;;;10.10;99.90;;;;;;5070875;28;20071;-87
2023/04/15 10:51:16;;;;;;;3.60;2.15;;;10.10;99.90;;;;;;5036176;28;20045;-86
2023/04/15 10:53:42;;;;;;;3.80;2.60;;;10.30;99.90;;;;;;5071057;28;20100;-87
2023/04/15 10:56:09;;;;;;;3.38;2.30;;;10.50;99.90;;;;;;5054745;28;20059;-85
2023/04/15 10:58:42;;;;;;;3.15;1.80;;;10.40;99.90;;;;;;5076957;28;20044;-83
2023/04/15 11:01:13;;;;;;;2.30;1.48;;;10.50;99.90;;;;;;5041799;28;20056;-85
2023/04/15 11:03:41;;;;;;;3.85;2.28;;;10.70;99.90;;;;;;5041691;28;20044;-85
2023/04/15 11:06:06;;;;;;;5.55;2.63;;;10.50;99.90;;;;;;5039988;28;20049;-87
2023/04/15 11:08:52;;;;;;;4.68;2.10;;;10.40;99.90;;;;;;5067519;28;20064;-88
2023/04/15 11:11:17;;;;;;;4.30;2.20;;;10.70;99.90;;;;;;5070728;28;20113;-88
2023/04/15 11:13:47;;;;;;;6.03;2.83;;;10.50;99.90;;;;;;5036781;28;20053;-88
2023/04/15 11:16:13;;;;;;;7.65;2.70;;;10.20;99.90;;;;;;5053471;28;20584;-88
2023/04/15 11:18:38;;;;;;;2.85;2.47;;;10.20;99.90;;;;;;5053382;28;20037;-85
2023/04/15 11:21:05;;;;;;;4.80;2.47;;;10.20;99.90;;;;;;5072774;28;20052;-86
2023/04/15 11:23:34;;;;;;;1.73;1.63;;;10.50;99.90;;;;;;5055928;28;20048;-84
2023/04/15 11:26:01;;;;;;;5.75;3.13;;;10.80;99.90;;;;;;5077541;28;20048;-84
2023/04/15 11:28:28;;;;;;;3.80;2.70;;;10.50;99.90;;;;;;5037317;28;20094;-85
2023/04/15 11:30:54;;;;;;;3.75;2.28;;;10.30;99.90;;;;;;5053708;28;20067;-82
2023/04/15 11:33:21;;;;;;;2.90;2.08;;;10.50;99.90;;;;;;5069620;28;20738;-85
2023/04/15 11:35:47;;;;;;;5.03;2.63;;;10.70;99.90;;;;;;5069162;28;20434;-82
2023/04/15 11:38:14;;;;;;;5.45;2.85;;;10.80;99.90;;;;;;5070380;28;20614;-83
2023/04/15 11:40:40;;;;;;;6.25;2.88;;;10.80;99.90;;;;;;5037347;28;20061;-84
2023/04/15 11:43:19;;;;;;;5.78;2.22;;;10.80;99.90;;;;;;5069667;28;20088;-83
2023/04/15 11:45:52;;;;;;;8.70;2.65;;;11.10;99.90;;;;;;5041351;28;20118;-83
2023/04/15 11:48:19;;;;;;;6.97;2.45;;;10.70;99.90;;;;;;5062041;28;20061;-83
2023/04/15 11:50:45;;;;;;;5.35;2.63;;;11.00;99.90;;;;;;5025479;28;20053;-85
2023/04/15 11:53:12;;;;;;;3.67;1.55;;;11.00;99.90;;;;;;5053065;28;20048;-84
2023/04/15 11:55:48;;;;;;;6.60;2.25;;;11.20;99.90;;;;;;5067979;28;20483;-82
2023/04/15 11:58:19;;;;;;;5.50;1.92;;;11.00;99.90;;;;;;5067817;28;20044;-82
2023/04/15 12:00:52;;;;;;;6.72;2.92;;;11.00;99.90;;;;;;5052779;28;20048;-81
2023/04/15 12:03:28;;;;;;;4.90;2.20;;;11.00;99.90;;;;;;5036525;28;20534;-83
2023/04/15 12:06:05;;;;;;;3.00;1.55;;;11.10;99.90;;;;;;5068834;28;20048;-83
2023/04/15 12:08:54;;;;;;;3.85;1.05;;;10.90;99.90;;;;;;5052910;28;20134;-83
2023/04/15 12:11:31;;;;;;;2.83;1.50;;;11.10;99.90;;;;;;5052360;28;20044;-83
2023/04/15 12:13:58;;;;;;;3.97;1.35;;;11.30;99.90;;;;;;5020248;28;20559;-82
2023/04/15 12:16:23;;;;;;;2.50;1.52;;;11.30;99.90;;;;;;5072566;28;20060;-83
2023/04/15 12:18:59;;;;;;;7.72;2.83;;;11.30;99.90;;;;;;5077149;28;20056;-82
2023/04/15 12:21:27;;;;;;;6.63;2.10;;;10.80;99.90;;;;;;5052884;28;20048;-88
2023/04/15 12:23:55;;;;;;;4.40;1.48;;;10.90;99.90;;;;;;5052852;28;20067;-86
2023/04/15 12:26:52;;;;;;;3.08;1.70;;;10.90;99.90;;;;;;5052801;28;20048;-86
2023/04/15 12:29:25;;;;;;;4.10;2.00;;;10.90;99.90;;;;;;5060801;28;20064;-87
2023/04/15 12:31:55;;;;;;;3.45;1.70;;;10.80;99.90;;;;;;5033005;28;20369;-86
2023/04/15 12:34:31;;;;;;;2.90;1.70;;;10.70;99.90;;;;;;5051734;28;20482;-84
2023/04/15 12:36:58;;;;;;;4.57;2.13;;;10.90;99.90;;;;;;5065995;28;20055;-83
2023/04/15 12:39:25;;;;;;;1.45;1.35;;;10.70;99.90;;;;;;5069480;28;20056;-82
2023/04/15 12:41:51;;;;;;;7.97;3.22;;;10.70;99.90;;;;;;5067303;28;20063;-84